Time;durP1;ratioP1;P1;durP2;ratioP2;P2;SDS_P1;SDS_P2;PMS_P1;PMS_P2;Temp;Humidity;BMP_temperature;BMP_pressure;BME280_temperature;BME280_humidity;BME280_pressure;Samples;Min_cycle;Max_cycle;Signal;HPM_P1;HPM_P2
2021/10/19 00:00:56;;;;;;;;;;;;;;;;;;2122698;28;19923;-56
2021/10/19 00:01:57;;;;;;;;;;;;;;;;;;2122711;28;19924;-56
2021/10/19 00:02:58;;;;;;;;;;;;;;;;;;2122671;28;19968;-55
2021/10/19 00:03:59;;;;;;;;;;;;;;;;;;2122231;27;19927;-56
2021/10/19 00:04:59;;;;;;;;;;;;;;;;;;2122592;28;19933;-56
2021/10/19 00:06:00;;;;;;;;;;;;;;;;;;2122680;28;19923;-56
2021/10/19 00:07:01;;;;;;;;;;;;;;;;;;2122693;28;19930;-56
2021/10/19 00:08:02;;;;;;;;;;;;;;;;;;2122625;28;19924;-56
2021/10/19 00:09:03;;;;;;;;;;;;;;;;;;2122755;28;20433;-56
2021/10/19 00:10:03;;;;;;;;;;;;;;;;;;2122757;28;19931;-56
2021/10/19 00:11:04;;;;;;;;;;;;;;;;;;2122793;28;19923;-56
2021/10/19 00:12:05;;;;;;;;;;;;;;;;;;2122727;28;20308;-56
2021/10/19 00:13:06;;;;;;;;;;;;;;;;;;2122819;28;19923;-56
2021/10/19 00:14:07;;;;;;;;;;;;;;;;;;2122590;28;19938;-56
2021/10/19 00:15:08;;;;;;;;;;;;;;;;;;2122587;28;19977;-55
2021/10/19 00:16:09;;;;;;;;;;;;;;;;;;2122697;28;19927;-56
2021/10/19 00:17:10;;;;;;;;;;;;;;;;;;2122517;28;19923;-56
2021/10/19 00:18:11;;;;;;;;;;;;;;;;;;2122749;28;19942;-55
2021/10/19 00:19:12;;;;;;;;;;;;;;;;;;2122596;28;19968;-56
2021/10/19 00:20:13;;;;;;;;;;;;;;;;;;2122724;28;19923;-56
2021/10/19 00:21:14;;;;;;;;;;;;;;;;;;2122635;28;19930;-56
2021/10/19 00:22:14;;;;;;;;;;;;;;;;;;2122869;28;19930;-56
2021/10/19 00:23:15;;;;;;;;;;;;;;;;;;2122772;27;19976;-56
2021/10/19 00:24:16;;;;;;;;;;;;;;;;;;2122654;28;19930;-56
2021/10/19 00:25:17;;;;;;;;;;;;;;;;;;2122575;28;19962;-56
2021/10/19 00:26:17;;;;;;;;;;;;;;;;;;2122646;28;20425;-56
2021/10/19 00:27:18;;;;;;;;;;;;;;;;;;2122605;28;19970;-56
2021/10/19 00:28:19;;;;;;;;;;;;;;;;;;2122807;28;19995;-56
2021/10/19 00:29:20;;;;;;;;;;;;;;;;;;2122397;28;19927;-55
2021/10/19 00:30:21;;;;;;;;;;;;;;;;;;2122652;28;19951;-55
2021/10/19 00:31:22;;;;;;;;;;;;;;;;;;2122269;28;19924;-55
2021/10/19 00:32:27;;;;;;;;;;;;;;;;;;2122734;28;20288;-55
2021/10/19 00:33:28;;;;;;;;;;;;;;;;;;2122595;28;19924;-55
2021/10/19 00:34:30;;;;;;;;;;;;;;;;;;2122712;28;19924;-53
2021/10/19 00:35:31;;;;;;;;;;;;;;;;;;2122407;27;20052;-55
2021/10/19 00:36:32;;;;;;;;;;;;;;;;;;2122714;28;19928;-56
2021/10/19 00:37:32;;;;;;;;;;;;;;;;;;2122486;28;20304;-55
2021/10/19 00:38:33;;;;;;;;;;;;;;;;;;2122734;28;19924;-56
2021/10/19 00:39:34;;;;;;;;;;;;;;;;;;2122405;28;20292;-56
2021/10/19 00:40:35;;;;;;;;;;;;;;;;;;2122489;28;19930;-56
2021/10/19 00:41:36;;;;;;;;;;;;;;;;;;2122459;28;20360;-57
2021/10/19 00:42:37;;;;;;;;;;;;;;;;;;2122553;28;19923;-56
2021/10/19 00:43:38;;;;;;;;;;;;;;;;;;2122620;28;19928;-55
2021/10/19 00:44:39;;;;;;;;;;;;;;;;;;2122646;28;20009;-56
2021/10/19 00:45:39;;;;;;;;;;;;;;;;;;2122421;28;19954;-56
2021/10/19 00:46:42;;;;;;;;;;;;;;;;;;2122721;27;20441;-56
2021/10/19 00:47:48;;;;;;;;;;;;;;;;;;2122417;28;20006;-56
2021/10/19 00:48:48;;;;;;;;;;;;;;;;;;2122795;28;20014;-56
2021/10/19 00:49:49;;;;;;;;;;;;;;;;;;2122434;28;19931;-56
2021/10/19 00:50:50;;;;;;;;;;;;;;;;;;2122504;28;19928;-56
2021/10/19 00:51:51;;;;;;;;;;;;;;;;;;2122390;28;19924;-56
2021/10/19 00:52:52;;;;;;;;;;;;;;;;;;2122475;28;19931;-57
2021/10/19 00:53:52;;;;;;;;;;;;;;;;;;2122375;28;20043;-56
2021/10/19 00:54:53;;;;;;;;;;;;;;;;;;2122689;28;19923;-56
2021/10/19 00:55:54;;;;;;;;;;;;;;;;;;2122469;28;19923;-56
2021/10/19 00:56:55;;;;;;;;;;;;;;;;;;2122578;28;19923;-55
2021/10/19 00:57:56;;;;;;;;;;;;;;;;;;2122390;28;19923;-56
2021/10/19 00:58:57;;;;;;;;;;;;;;;;;;2122431;27;19923;-56
2021/10/19 00:59:57;;;;;;;;;;;;;;;;;;2122404;28;19923;-56
2021/10/19 01:00:58;;;;;;;;;;;;;;;;;;2122475;28;19935;-56
2021/10/19 01:01:59;;;;;;;;;;;;;;;;;;2122711;28;19967;-56
2021/10/19 01:03:00;;;;;;;;;;;;;;;;;;2122314;28;19923;-56
2021/10/19 01:04:01;;;;;;;;;;;;;;;;;;2122648;27;19927;-56
2021/10/19 01:05:02;;;;;;;;;;;;;;;;;;2122470;27;19923;-55
2021/10/19 01:06:03;;;;;;;;;;;;;;;;;;2122429;28;19924;-55
2021/10/19 01:07:04;;;;;;;;;;;;;;;;;;2122536;28;19930;-56
2021/10/19 01:08:04;;;;;;;;;;;;;;;;;;2122730;28;19928;-56
2021/10/19 01:09:05;;;;;;;;;;;;;;;;;;2122487;27;19934;-56
2021/10/19 01:10:06;;;;;;;;;;;;;;;;;;2122465;28;19924;-56
2021/10/19 01:11:07;;;;;;;;;;;;;;;;;;2122315;28;19923;-56
2021/10/19 01:12:08;;;;;;;;;;;;;;;;;;2122522;28;19931;-56
2021/10/19 01:13:09;;;;;;;;;;;;;;;;;;2122417;28;20308;-55
2021/10/19 01:14:09;;;;;;;;;;;;;;;;;;2122386;28;19934;-56
2021/10/19 01:15:10;;;;;;;;;;;;;;;;;;2122369;27;19923;-56
2021/10/19 01:16:11;;;;;;;;;;;;;;;;;;2123712;28;19923;-56
2021/10/19 01:17:12;;;;;;;;;;;;;;;;;;2123824;27;19923;-56
2021/10/19 01:18:15;;;;;;;;;;;;;;;;;;2123971;28;20481;-56
2021/10/19 01:19:16;;;;;;;;;;;;;;;;;;2123916;27;19927;-56
2021/10/19 01:20:16;;;;;;;;;;;;;;;;;;2123962;28;19924;-56
2021/10/19 01:21:17;;;;;;;;;;;;;;;;;;2123655;28;19924;-56
2021/10/19 01:22:18;;;;;;;;;;;;;;;;;;2123819;28;19924;-56
2021/10/19 01:23:19;;;;;;;;;;;;;;;;;;2123877;28;19923;-56
2021/10/19 01:24:20;;;;;;;;;;;;;;;;;;2123859;28;20418;-57
2021/10/19 01:25:21;;;;;;;;;;;;;;;;;;2123815;28;20004;-57
2021/10/19 01:26:21;;;;;;;;;;;;;;;;;;2123861;28;19923;-56
2021/10/19 01:27:22;;;;;;;;;;;;;;;;;;2123741;28;19923;-57
2021/10/19 01:28:23;;;;;;;;;;;;;;;;;;2123665;28;19941;-56
2021/10/19 01:29:24;;;;;;;;;;;;;;;;;;2123808;28;20384;-56
2021/10/19 01:30:24;;;;;;;;;;;;;;;;;;2123703;28;19929;-57
2021/10/19 01:31:25;;;;;;;;;;;;;;;;;;2123797;28;19923;-56
2021/10/19 01:32:26;;;;;;;;;;;;;;;;;;2123667;28;19935;-56
2021/10/19 01:33:27;;;;;;;;;;;;;;;;;;2123809;28;19924;-57
2021/10/19 01:34:28;;;;;;;;;;;;;;;;;;2123606;28;19930;-56
2021/10/19 01:35:29;;;;;;;;;;;;;;;;;;2123814;27;19923;-57
2021/10/19 01:36:29;;;;;;;;;;;;;;;;;;2123576;28;19927;-56
2021/10/19 01:37:30;;;;;;;;;;;;;;;;;;2123737;28;19935;-55
2021/10/19 01:38:33;;;;;;;;;;;;;;;;;;2123806;28;19923;-55
2021/10/19 01:39:34;;;;;;;;;;;;;;;;;;2123734;28;19976;-57
2021/10/19 01:40:35;;;;;;;;;;;;;;;;;;2123814;28;19984;-57
2021/10/19 01:41:36;;;;;;;;;;;;;;;;;;2123592;28;19923;-56
2021/10/19 01:42:36;;;;;;;;;;;;;;;;;;2123851;28;19961;-57
2021/10/19 01:43:37;;;;;;;;;;;;;;;;;;2123534;28;19984;-57
2021/10/19 01:44:38;;;;;;;;;;;;;;;;;;2123691;28;19930;-57
2021/10/19 01:45:39;;;;;;;;;;;;;;;;;;2123605;28;19923;-57
2021/10/19 01:46:40;;;;;;;;;;;;;;;;;;2123767;28;20326;-57
2021/10/19 01:47:41;;;;;;;;;;;;;;;;;;2123578;28;20260;-56
2021/10/19 01:48:42;;;;;;;;;;;;;;;;;;2123653;28;19939;-57
2021/10/19 01:49:43;;;;;;;;;;;;;;;;;;2123654;27;19923;-57
2021/10/19 01:50:44;;;;;;;;;;;;;;;;;;2123560;28;20319;-56
2021/10/19 01:51:45;;;;;;;;;;;;;;;;;;2123699;28;20390;-57
2021/10/19 01:52:45;;;;;;;;;;;;;;;;;;2123718;28;19930;-57
2021/10/19 01:53:46;;;;;;;;;;;;;;;;;;2123626;28;19923;-57
2021/10/19 01:54:47;;;;;;;;;;;;;;;;;;2123675;28;19924;-57
2021/10/19 01:55:48;;;;;;;;;;;;;;;;;;2123564;27;19946;-57
2021/10/19 01:56:48;;;;;;;;;;;;;;;;;;2123709;28;19975;-57
2021/10/19 01:57:49;;;;;;;;;;;;;;;;;;2123488;28;20224;-57
2021/10/19 01:58:50;;;;;;;;;;;;;;;;;;2123614;28;19975;-57
2021/10/19 01:59:51;;;;;;;;;;;;;;;;;;2123513;28;19927;-57
2021/10/19 02:00:52;;;;;;;;;;;;;;;;;;2123563;28;20384;-57
2021/10/19 02:01:53;;;;;;;;;;;;;;;;;;2123492;27;19924;-57
2021/10/19 02:02:53;;;;;;;;;;;;;;;;;;2123711;28;20436;-57
2021/10/19 02:03:54;;;;;;;;;;;;;;;;;;2123332;28;19968;-57
2021/10/19 02:04:55;;;;;;;;;;;;;;;;;;2123778;28;19928;-57
2021/10/19 02:05:56;;;;;;;;;;;;;;;;;;2123185;28;19972;-57
2021/10/19 02:06:57;;;;;;;;;;;;;;;;;;2123688;28;19923;-57
2021/10/19 02:08:00;;;;;;;;;;;;;;;;;;2123540;28;19923;-57
2021/10/19 02:09:00;;;;;;;;;;;;;;;;;;2123535;28;19953;-57
2021/10/19 02:10:02;;;;;;;;;;;;;;;;;;2123609;27;20389;-57
2021/10/19 02:11:03;;;;;;;;;;;;;;;;;;2123477;28;19927;-56
2021/10/19 02:12:04;;;;;;;;;;;;;;;;;;2123502;27;20018;-57
2021/10/19 02:13:04;;;;;;;;;;;;;;;;;;2123506;28;20127;-57
2021/10/19 02:14:05;;;;;;;;;;;;;;;;;;2123422;28;19924;-57
2021/10/19 02:15:06;;;;;;;;;;;;;;;;;;2123475;28;19923;-57
2021/10/19 02:16:07;;;;;;;;;;;;;;;;;;2123295;28;19927;-57
2021/10/19 02:17:08;;;;;;;;;;;;;;;;;;2123520;28;19923;-57
2021/10/19 02:18:09;;;;;;;;;;;;;;;;;;2123315;28;19924;-57
2021/10/19 02:19:09;;;;;;;;;;;;;;;;;;2123520;28;19968;-55
2021/10/19 02:20:10;;;;;;;;;;;;;;;;;;2123377;27;19928;-57
2021/10/19 02:21:11;;;;;;;;;;;;;;;;;;2123511;28;19924;-57
2021/10/19 02:22:12;;;;;;;;;;;;;;;;;;2123334;28;19923;-55
2021/10/19 02:23:13;;;;;;;;;;;;;;;;;;2123470;28;19968;-56
2021/10/19 02:24:13;;;;;;;;;;;;;;;;;;2123311;28;19931;-57
2021/10/19 02:25:14;;;;;;;;;;;;;;;;;;2123449;28;19927;-56
2021/10/19 02:26:15;;;;;;;;;;;;;;;;;;2123204;28;19923;-56
2021/10/19 02:27:16;;;;;;;;;;;;;;;;;;2122717;27;19923;-57
2021/10/19 02:28:17;;;;;;;;;;;;;;;;;;2123489;28;19944;-57
2021/10/19 02:29:17;;;;;;;;;;;;;;;;;;2123270;28;19975;-57
2021/10/19 02:30:18;;;;;;;;;;;;;;;;;;2123446;28;20142;-55
2021/10/19 02:31:19;;;;;;;;;;;;;;;;;;2123390;28;19930;-57
2021/10/19 02:32:20;;;;;;;;;;;;;;;;;;2123320;28;19927;-57
2021/10/19 02:33:21;;;;;;;;;;;;;;;;;;2123235;28;19927;-55
2021/10/19 02:34:23;;;;;;;;;;;;;;;;;;2123328;28;20423;-55
2021/10/19 02:35:24;;;;;;;;;;;;;;;;;;2123259;28;19962;-57
2021/10/19 02:36:25;;;;;;;;;;;;;;;;;;2123371;28;20395;-57
2021/10/19 02:37:25;;;;;;;;;;;;;;;;;;2123507;28;19923;-57
2021/10/19 02:38:26;;;;;;;;;;;;;;;;;;2123240;28;19931;-55
2021/10/19 02:39:27;;;;;;;;;;;;;;;;;;2123435;28;19930;-57
2021/10/19 02:40:28;;;;;;;;;;;;;;;;;;2123102;28;20376;-56
2021/10/19 02:41:29;;;;;;;;;;;;;;;;;;2123375;28;19948;-58
2021/10/19 02:42:30;;;;;;;;;;;;;;;;;;2123101;28;20369;-58
2021/10/19 02:43:30;;;;;;;;;;;;;;;;;;2123449;28;19927;-56
2021/10/19 02:44:31;;;;;;;;;;;;;;;;;;2123233;28;19924;-56
2021/10/19 02:45:32;;;;;;;;;;;;;;;;;;2123285;28;20295;-58
2021/10/19 02:46:33;;;;;;;;;;;;;;;;;;2123207;28;20311;-57
2021/10/19 02:47:33;;;;;;;;;;;;;;;;;;2123333;28;19939;-58
2021/10/19 02:48:34;;;;;;;;;;;;;;;;;;2123180;28;19970;-57
2021/10/19 02:49:35;;;;;;;;;;;;;;;;;;2123216;28;19927;-56
2021/10/19 02:50:36;;;;;;;;;;;;;;;;;;2123202;28;19923;-56
2021/10/19 02:51:37;;;;;;;;;;;;;;;;;;2123429;28;20386;-56
2021/10/19 02:52:38;;;;;;;;;;;;;;;;;;2123258;28;19923;-57
2021/10/19 02:53:39;;;;;;;;;;;;;;;;;;2123434;28;20288;-58
2021/10/19 02:54:40;;;;;;;;;;;;;;;;;;2123109;28;19972;-56
2021/10/19 02:55:41;;;;;;;;;;;;;;;;;;2123286;28;19927;-56
2021/10/19 02:56:42;;;;;;;;;;;;;;;;;;2122999;27;20064;-56
2021/10/19 02:57:43;;;;;;;;;;;;;;;;;;2123268;28;19928;-57
2021/10/19 02:58:45;;;;;;;;;;;;;;;;;;2123180;28;19931;-58
2021/10/19 02:59:46;;;;;;;;;;;;;;;;;;2123281;28;20023;-58
2021/10/19 03:00:47;;;;;;;;;;;;;;;;;;2122823;28;19930;-58
2021/10/19 03:01:47;;;;;;;;;;;;;;;;;;2123312;28;19924;-55
2021/10/19 03:02:48;;;;;;;;;;;;;;;;;;2123013;27;19943;-56
2021/10/19 03:03:49;;;;;;;;;;;;;;;;;;2123356;28;19924;-56
2021/10/19 03:04:50;;;;;;;;;;;;;;;;;;2123140;28;20505;-57
2021/10/19 03:05:51;;;;;;;;;;;;;;;;;;2123196;28;20325;-56
2021/10/19 03:06:52;;;;;;;;;;;;;;;;;;2123041;28;19923;-56
2021/10/19 03:07:52;;;;;;;;;;;;;;;;;;2123367;28;19923;-57
2021/10/19 03:08:54;;;;;;;;;;;;;;;;;;2123099;28;20079;-58
2021/10/19 03:09:55;;;;;;;;;;;;;;;;;;2123184;27;19930;-56
2021/10/19 03:10:56;;;;;;;;;;;;;;;;;;2122905;28;19938;-56
2021/10/19 03:11:56;;;;;;;;;;;;;;;;;;2123094;28;19927;-56
2021/10/19 03:12:57;;;;;;;;;;;;;;;;;;2123133;28;19952;-56
2021/10/19 03:13:58;;;;;;;;;;;;;;;;;;2123081;28;19988;-56
2021/10/19 03:14:59;;;;;;;;;;;;;;;;;;2123022;28;19930;-56
2021/10/19 03:15:59;;;;;;;;;;;;;;;;;;2123035;28;19931;-56
2021/10/19 03:17:00;;;;;;;;;;;;;;;;;;2123152;28;19927;-56
2021/10/19 03:18:01;;;;;;;;;;;;;;;;;;2123096;28;19927;-56
2021/10/19 03:19:03;;;;;;;;;;;;;;;;;;2123107;28;19937;-56
2021/10/19 03:20:04;;;;;;;;;;;;;;;;;;2123159;27;20010;-56
2021/10/19 03:21:04;;;;;;;;;;;;;;;;;;2122805;28;20299;-56
2021/10/19 03:22:05;;;;;;;;;;;;;;;;;;2123112;28;20397;-56
2021/10/19 03:23:06;;;;;;;;;;;;;;;;;;2123000;28;19930;-56
2021/10/19 03:24:07;;;;;;;;;;;;;;;;;;2123022;28;19923;-56
2021/10/19 03:25:08;;;;;;;;;;;;;;;;;;2122946;28;19923;-56
2021/10/19 03:26:08;;;;;;;;;;;;;;;;;;2122832;28;19929;-55
2021/10/19 03:27:09;;;;;;;;;;;;;;;;;;2123020;28;20188;-56
2021/10/19 03:28:10;;;;;;;;;;;;;;;;;;2123036;28;19928;-56
2021/10/19 03:29:11;;;;;;;;;;;;;;;;;;2123050;28;19930;-56
2021/10/19 03:30:11;;;;;;;;;;;;;;;;;;2122926;28;19923;-55
2021/10/19 03:31:12;;;;;;;;;;;;;;;;;;2122818;28;19930;-55
2021/10/19 03:32:13;;;;;;;;;;;;;;;;;;2122874;28;19923;-57
2021/10/19 03:33:14;;;;;;;;;;;;;;;;;;2122878;28;19923;-55
2021/10/19 03:34:15;;;;;;;;;;;;;;;;;;2123002;28;20039;-56
2021/10/19 03:35:16;;;;;;;;;;;;;;;;;;2122945;28;20387;-56
2021/10/19 03:36:17;;;;;;;;;;;;;;;;;;2122903;28;19923;-56
2021/10/19 03:37:17;;;;;;;;;;;;;;;;;;2122907;28;19934;-55
2021/10/19 03:38:18;;;;;;;;;;;;;;;;;;2122865;27;19923;-56
2021/10/19 03:39:19;;;;;;;;;;;;;;;;;;2121875;28;19975;-56
2021/10/19 03:40:20;;;;;;;;;;;;;;;;;;2122998;28;20341;-57
2021/10/19 03:41:21;;;;;;;;;;;;;;;;;;2122680;28;19928;-58
2021/10/19 03:42:21;;;;;;;;;;;;;;;;;;2122778;28;19951;-57
2021/10/19 03:43:22;;;;;;;;;;;;;;;;;;2122852;28;19923;-56
2021/10/19 03:44:24;;;;;;;;;;;;;;;;;;2122999;28;20010;-57
2021/10/19 03:45:24;;;;;;;;;;;;;;;;;;2122799;28;20338;-57
2021/10/19 03:46:25;;;;;;;;;;;;;;;;;;2122998;28;19979;-57
2021/10/19 03:47:26;;;;;;;;;;;;;;;;;;2122846;28;20042;-57
2021/10/19 03:48:27;;;;;;;;;;;;;;;;;;2122798;28;20280;-57
2021/10/19 03:49:30;;;;;;;;;;;;;;;;;;2122880;27;19971;-58
2021/10/19 03:50:31;;;;;;;;;;;;;;;;;;2122715;28;20283;-58
2021/10/19 03:51:32;;;;;;;;;;;;;;;;;;2122953;28;19923;-57
2021/10/19 03:52:33;;;;;;;;;;;;;;;;;;2122878;28;19931;-56
2021/10/19 03:53:33;;;;;;;;;;;;;;;;;;2122876;28;19923;-57
2021/10/19 03:54:34;;;;;;;;;;;;;;;;;;2122815;28;19931;-56
2021/10/19 03:55:35;;;;;;;;;;;;;;;;;;2122821;28;19923;-57
2021/10/19 03:56:36;;;;;;;;;;;;;;;;;;2122900;28;19993;-57
2021/10/19 03:57:39;;;;;;;;;;;;;;;;;;2122709;28;19923;-57
2021/10/19 03:58:40;;;;;;;;;;;;;;;;;;2122903;27;20474;-57
2021/10/19 03:59:40;;;;;;;;;;;;;;;;;;2122794;28;19927;-57
2021/10/19 04:00:41;;;;;;;;;;;;;;;;;;2122827;28;19952;-58
2021/10/19 04:01:42;;;;;;;;;;;;;;;;;;2122786;28;19929;-58
2021/10/19 04:02:43;;;;;;;;;;;;;;;;;;2122746;28;20497;-57
2021/10/19 04:03:44;;;;;;;;;;;;;;;;;;2122751;28;20392;-57
2021/10/19 04:04:45;;;;;;;;;;;;;;;;;;2122793;28;19923;-57
2021/10/19 04:05:45;;;;;;;;;;;;;;;;;;2122598;28;19927;-57
2021/10/19 04:06:46;;;;;;;;;;;;;;;;;;2122529;28;19923;-56
2021/10/19 04:07:47;;;;;;;;;;;;;;;;;;2122869;28;19923;-56
2021/10/19 04:08:48;;;;;;;;;;;;;;;;;;2122810;28;20377;-56
2021/10/19 04:09:49;;;;;;;;;;;;;;;;;;2122884;28;19923;-56
2021/10/19 04:10:50;;;;;;;;;;;;;;;;;;2122494;28;19927;-56
2021/10/19 04:11:50;;;;;;;;;;;;;;;;;;2123015;27;20030;-56
2021/10/19 04:12:51;;;;;;;;;;;;;;;;;;2122568;28;19923;-56
2021/10/19 04:13:52;;;;;;;;;;;;;;;;;;2122887;28;20380;-56
2021/10/19 04:14:53;;;;;;;;;;;;;;;;;;2122561;28;19958;-56
2021/10/19 04:15:54;;;;;;;;;;;;;;;;;;2123031;28;20287;-44
2021/10/19 04:16:55;;;;;;;;;;;;;;;;;;2122554;28;20341;-44
2021/10/19 04:17:56;;;;;;;;;;;;;;;;;;2122747;28;19976;-43
2021/10/19 04:18:57;;;;;;;;;;;;;;;;;;2122540;28;19924;-43
2021/10/19 04:19:58;;;;;;;;;;;;;;;;;;2122908;28;19983;-44
2021/10/19 04:20:59;;;;;;;;;;;;;;;;;;2122595;28;19924;-44
2021/10/19 04:21:59;;;;;;;;;;;;;;;;;;2122838;28;20122;-44
2021/10/19 04:23:00;;;;;;;;;;;;;;;;;;2122676;27;19927;-43
2021/10/19 04:24:01;;;;;;;;;;;;;;;;;;2122738;28;19924;-43
2021/10/19 04:25:02;;;;;;;;;;;;;;;;;;2122643;28;19966;-43
2021/10/19 04:26:03;;;;;;;;;;;;;;;;;;2122678;28;19923;-44
2021/10/19 04:27:03;;;;;;;;;;;;;;;;;;2122633;28;19972;-44
2021/10/19 04:28:04;;;;;;;;;;;;;;;;;;2122698;28;20295;-43
2021/10/19 04:29:05;;;;;;;;;;;;;;;;;;2122599;28;20384;-44
2021/10/19 04:30:06;;;;;;;;;;;;;;;;;;2122742;28;19954;-44
2021/10/19 04:31:07;;;;;;;;;;;;;;;;;;2122449;28;19924;-44
2021/10/19 04:32:07;;;;;;;;;;;;;;;;;;2122598;28;19923;-43
2021/10/19 04:33:08;;;;;;;;;;;;;;;;;;2122534;28;19931;-43
2021/10/19 04:34:09;;;;;;;;;;;;;;;;;;2122726;28;20420;-43
2021/10/19 04:35:10;;;;;;;;;;;;;;;;;;2122506;28;20387;-44
2021/10/19 04:36:11;;;;;;;;;;;;;;;;;;2122617;28;19952;-43
2021/10/19 04:37:12;;;;;;;;;;;;;;;;;;2122555;28;19931;-44
2021/10/19 04:38:12;;;;;;;;;;;;;;;;;;2122895;28;20365;-44
2021/10/19 04:39:13;;;;;;;;;;;;;;;;;;2122526;28;20289;-44
2021/10/19 04:40:14;;;;;;;;;;;;;;;;;;2122722;27;20455;-43
2021/10/19 04:41:15;;;;;;;;;;;;;;;;;;2122491;28;19970;-44
2021/10/19 04:42:16;;;;;;;;;;;;;;;;;;2122589;28;19923;-44
2021/10/19 04:43:17;;;;;;;;;;;;;;;;;;2122668;28;20469;-44
2021/10/19 04:44:17;;;;;;;;;;;;;;;;;;2122575;28;19947;-44
2021/10/19 04:45:20;;;;;;;;;;;;;;;;;;2122564;28;19923;-44
2021/10/19 04:46:20;;;;;;;;;;;;;;;;;;2122463;28;19927;-44
2021/10/19 04:47:22;;;;;;;;;;;;;;;;;;2122587;28;19923;-44
2021/10/19 04:48:23;;;;;;;;;;;;;;;;;;2122541;28;20002;-44
2021/10/19 04:49:23;;;;;;;;;;;;;;;;;;2122549;28;19927;-44
2021/10/19 04:50:24;;;;;;;;;;;;;;;;;;2122819;27;19924;-43
2021/10/19 04:51:25;;;;;;;;;;;;;;;;;;2124113;28;19931;-44
2021/10/19 04:52:26;;;;;;;;;;;;;;;;;;2124093;28;19927;-44
2021/10/19 04:53:27;;;;;;;;;;;;;;;;;;2124224;28;19927;-44
2021/10/19 04:54:28;;;;;;;;;;;;;;;;;;2123995;28;19923;-44
2021/10/19 04:55:29;;;;;;;;;;;;;;;;;;2124189;28;20400;-44
2021/10/19 04:56:30;;;;;;;;;;;;;;;;;;2124204;27;20350;-44
2021/10/19 04:57:31;;;;;;;;;;;;;;;;;;2123858;28;19934;-44
2021/10/19 04:58:32;;;;;;;;;;;;;;;;;;2124041;28;20211;-44
2021/10/19 04:59:32;;;;;;;;;;;;;;;;;;2124026;28;19927;-44
2021/10/19 05:00:33;;;;;;;;;;;;;;;;;;2123926;28;19931;-44
2021/10/19 05:01:34;;;;;;;;;;;;;;;;;;2124146;28;19923;-44
2021/10/19 05:02:35;;;;;;;;;;;;;;;;;;2123920;28;19923;-44
2021/10/19 05:03:39;;;;;;;;;;;;;;;;;;2123936;27;20380;-44
2021/10/19 05:04:40;;;;;;;;;;;;;;;;;;2123961;28;20014;-44
2021/10/19 05:05:41;;;;;;;;;;;;;;;;;;2123846;28;20372;-44
2021/10/19 05:06:42;;;;;;;;;;;;;;;;;;2123895;28;19923;-44
2021/10/19 05:07:43;;;;;;;;;;;;;;;;;;2124212;28;19976;-44
2021/10/19 05:08:43;;;;;;;;;;;;;;;;;;2124045;28;20372;-44
2021/10/19 05:09:44;;;;;;;;;;;;;;;;;;2123965;28;19923;-44
2021/10/19 05:10:45;;;;;;;;;;;;;;;;;;2123789;28;19930;-44
2021/10/19 05:11:46;;;;;;;;;;;;;;;;;;2123860;28;20364;-43
2021/10/19 05:12:48;;;;;;;;;;;;;;;;;;2123980;28;19935;-44
2021/10/19 05:13:49;;;;;;;;;;;;;;;;;;2124044;28;20006;-44
2021/10/19 05:14:50;;;;;;;;;;;;;;;;;;2124060;28;19950;-44
2021/10/19 05:15:51;;;;;;;;;;;;;;;;;;2123672;28;19924;-44
2021/10/19 05:16:51;;;;;;;;;;;;;;;;;;2123860;27;19930;-44
2021/10/19 05:17:52;;;;;;;;;;;;;;;;;;2123652;28;19930;-44
2021/10/19 05:18:53;;;;;;;;;;;;;;;;;;2124135;28;20393;-44
2021/10/19 05:19:54;;;;;;;;;;;;;;;;;;2123747;28;19927;-43
2021/10/19 05:20:55;;;;;;;;;;;;;;;;;;2123994;27;20006;-43
2021/10/19 05:21:56;;;;;;;;;;;;;;;;;;2123824;28;19931;-43
2021/10/19 05:22:57;;;;;;;;;;;;;;;;;;2124109;28;19923;-43
2021/10/19 05:23:57;;;;;;;;;;;;;;;;;;2123785;28;19923;-43
2021/10/19 05:24:58;;;;;;;;;;;;;;;;;;2124005;28;19977;-43
2021/10/19 05:25:59;;;;;;;;;;;;;;;;;;2123562;28;19930;-43
2021/10/19 05:27:00;;;;;;;;;;;;;;;;;;2123834;28;19923;-43
2021/10/19 05:28:01;;;;;;;;;;;;;;;;;;2123636;28;19928;-43
2021/10/19 05:29:02;;;;;;;;;;;;;;;;;;2123927;28;19931;-43
2021/10/19 05:30:02;;;;;;;;;;;;;;;;;;2123814;28;19954;-43
2021/10/19 05:31:04;;;;;;;;;;;;;;;;;;2123706;28;19924;-43
2021/10/19 05:32:05;;;;;;;;;;;;;;;;;;2123832;27;19923;-42
2021/10/19 05:33:07;;;;;;;;;;;;;;;;;;2123872;28;20180;-43
2021/10/19 05:34:08;;;;;;;;;;;;;;;;;;2123658;28;20014;-43
2021/10/19 05:35:08;;;;;;;;;;;;;;;;;;2123809;28;19972;-43
2021/10/19 05:36:09;;;;;;;;;;;;;;;;;;2123532;28;19923;-43
2021/10/19 05:37:10;;;;;;;;;;;;;;;;;;2123834;28;20338;-43
2021/10/19 05:38:11;;;;;;;;;;;;;;;;;;2123668;28;19927;-43
2021/10/19 05:39:15;;;;;;;;;;;;;;;;;;2123811;28;19976;-43
2021/10/19 05:40:16;;;;;;;;;;;;;;;;;;2123651;28;20439;-43
2021/10/19 05:41:19;;;;;;;;;;;;;;;;;;2123537;28;19923;-43
2021/10/19 05:42:20;;;;;;;;;;;;;;;;;;2123686;28;20022;-43
2021/10/19 05:43:21;;;;;;;;;;;;;;;;;;2123927;28;20015;-43
2021/10/19 05:44:22;;;;;;;;;;;;;;;;;;2123713;28;19930;-43
2021/10/19 05:45:23;;;;;;;;;;;;;;;;;;2123734;27;20019;-43
2021/10/19 05:46:24;;;;;;;;;;;;;;;;;;2123693;28;19988;-43
2021/10/19 05:47:25;;;;;;;;;;;;;;;;;;2123584;27;20399;-43
2021/10/19 05:48:26;;;;;;;;;;;;;;;;;;2123725;28;19923;-43
2021/10/19 05:49:27;;;;;;;;;;;;;;;;;;2123845;28;19924;-43
2021/10/19 05:50:27;;;;;;;;;;;;;;;;;;2123758;28;20399;-43
2021/10/19 05:51:28;;;;;;;;;;;;;;;;;;2123647;28;19946;-43
2021/10/19 05:52:29;;;;;;;;;;;;;;;;;;2123664;28;19988;-43
2021/10/19 05:53:30;;;;;;;;;;;;;;;;;;2123499;28;20071;-43
2021/10/19 05:54:31;;;;;;;;;;;;;;;;;;2123646;28;19927;-43
2021/10/19 05:55:32;;;;;;;;;;;;;;;;;;2123649;28;19948;-43
2021/10/19 05:56:34;;;;;;;;;;;;;;;;;;2123790;28;19955;-43
2021/10/19 05:57:35;;;;;;;;;;;;;;;;;;2123611;28;19980;-43
2021/10/19 05:58:35;;;;;;;;;;;;;;;;;;2123562;28;19930;-43
2021/10/19 05:59:36;;;;;;;;;;;;;;;;;;2123610;28;19923;-43
2021/10/19 06:00:37;;;;;;;;;;;;;;;;;;2123608;28;19972;-43
2021/10/19 06:01:38;;;;;;;;;;;;;;;;;;2123498;27;20048;-43
2021/10/19 06:02:39;;;;;;;;;;;;;;;;;;2122749;28;19923;-43
2021/10/19 06:03:40;;;;;;;;;;;;;;;;;;2123569;28;19928;-43
2021/10/19 06:04:45;;;;;;;;;;;;;;;;;;2123516;28;20304;-42
2021/10/19 06:05:46;;;;;;;;;;;;;;;;;;2123438;28;19924;-43
2021/10/19 06:06:47;;;;;;;;;;;;;;;;;;2123631;27;20023;-42
2021/10/19 06:07:47;;;;;;;;;;;;;;;;;;2123544;28;20292;-43
2021/10/19 06:08:51;;;;;;;;;;;;;;;;;;2123670;28;19924;-43
2021/10/19 06:09:52;;;;;;;;;;;;;;;;;;2123378;28;20067;-43
2021/10/19 06:10:56;;;;;;;;;;;;;;;;;;2123456;28;19976;-43
2021/10/19 06:11:57;;;;;;;;;;;;;;;;;;2123321;28;20391;-43
2021/10/19 06:12:58;;;;;;;;;;;;;;;;;;2123486;28;19923;-43
2021/10/19 06:13:58;;;;;;;;;;;;;;;;;;2123480;27;19923;-43
2021/10/19 06:14:59;;;;;;;;;;;;;;;;;;2123583;28;20269;-43
2021/10/19 06:16:00;;;;;;;;;;;;;;;;;;2123255;28;20666;-43
2021/10/19 06:17:01;;;;;;;;;;;;;;;;;;2123656;28;19927;-43
2021/10/19 06:18:04;;;;;;;;;;;;;;;;;;2123369;28;19992;-43
2021/10/19 06:19:04;;;;;;;;;;;;;;;;;;2123483;28;20018;-43
2021/10/19 06:20:05;;;;;;;;;;;;;;;;;;2123707;27;19924;-43
2021/10/19 06:21:06;;;;;;;;;;;;;;;;;;2123274;28;19923;-43
2021/10/19 06:22:07;;;;;;;;;;;;;;;;;;2123464;28;19928;-43
2021/10/19 06:23:07;;;;;;;;;;;;;;;;;;2123473;28;20304;-43
2021/10/19 06:24:08;;;;;;;;;;;;;;;;;;2123468;28;20115;-43
2021/10/19 06:25:09;;;;;;;;;;;;;;;;;;2123370;28;19931;-43
2021/10/19 06:26:10;;;;;;;;;;;;;;;;;;2123278;27;20230;-43
2021/10/19 06:27:11;;;;;;;;;;;;;;;;;;2123426;28;19927;-43
2021/10/19 06:28:12;;;;;;;;;;;;;;;;;;2123556;28;20356;-43
2021/10/19 06:29:12;;;;;;;;;;;;;;;;;;2123456;28;19923;-43
2021/10/19 06:30:13;;;;;;;;;;;;;;;;;;2123232;28;19924;-43
2021/10/19 06:31:14;;;;;;;;;;;;;;;;;;2123305;28;19923;-43
2021/10/19 06:32:15;;;;;;;;;;;;;;;;;;2123311;28;19927;-43
2021/10/19 06:33:16;;;;;;;;;;;;;;;;;;2123363;28;19923;-43
2021/10/19 06:34:17;;;;;;;;;;;;;;;;;;2123328;28;19924;-43
2021/10/19 06:35:17;;;;;;;;;;;;;;;;;;2123328;28;19924;-43
2021/10/19 06:36:18;;;;;;;;;;;;;;;;;;2123151;28;20079;-43
2021/10/19 06:37:19;;;;;;;;;;;;;;;;;;2123348;28;19975;-43
2021/10/19 06:38:20;;;;;;;;;;;;;;;;;;2123326;28;19924;-43
2021/10/19 06:39:21;;;;;;;;;;;;;;;;;;2123542;28;19927;-43
2021/10/19 06:40:22;;;;;;;;;;;;;;;;;;2123175;28;20366;-43
2021/10/19 06:41:23;;;;;;;;;;;;;;;;;;2123348;27;20026;-43
2021/10/19 06:42:24;;;;;;;;;;;;;;;;;;2123245;28;20019;-43
2021/10/19 06:43:25;;;;;;;;;;;;;;;;;;2123344;28;20324;-43
2021/10/19 06:44:26;;;;;;;;;;;;;;;;;;2123219;27;20380;-43
2021/10/19 06:45:46;;;;;;;;;;;;;;;;;;2123215;28;19966;-43
2021/10/19 06:46:47;;;;;;;;;;;;;;;;;;2123089;28;19923;-43
2021/10/19 06:47:48;;;;;;;;;;;;;;;;;;2123357;28;19923;-43
2021/10/19 06:48:48;;;;;;;;;;;;;;;;;;2123243;28;19924;-43
2021/10/19 06:49:49;;;;;;;;;;;;;;;;;;2123380;28;19924;-43
2021/10/19 06:50:50;;;;;;;;;;;;;;;;;;2123175;28;19946;-43
2021/10/19 06:51:51;;;;;;;;;;;;;;;;;;2123185;28;19927;-43
2021/10/19 06:52:52;;;;;;;;;;;;;;;;;;2123127;28;19923;-43
2021/10/19 06:53:53;;;;;;;;;;;;;;;;;;2123227;28;19923;-43
2021/10/19 06:54:53;;;;;;;;;;;;;;;;;;2123054;28;19927;-43
2021/10/19 06:55:54;;;;;;;;;;;;;;;;;;2123213;28;19930;-43
2021/10/19 06:56:55;;;;;;;;;;;;;;;;;;2123278;28;20258;-43